Terminal Aerodrome Forecast
Issued by NWS

Home | Current Version | Previous Version | Text Only | Print | Product List | Glossary On
Versions: 1 2 3 4 5 6 7 8 9 10 11 12
000
FTUS44 KEPZ 290600 RRA
TAFTCS
TAF
KTCS 290602Z 2906/3006 35005KT P6SM FEW150 BKN250
     FM291200 01010KT P6SM FEW050 OVC150
     FM291600 02014G24KT P6SM SCT060 BKN100
     FM292000 02018G28KT P6SM VCSH BKN050
     FM300200 03011KT P6SM -SHRA SCT015 BKN025=

USA.gov is the U.S. government's official web portal to all federal, state and local government web resources and services.